sensor_id;sensor_type;location;lat;lon;timestamp;P1;durP1;ratioP1;P2;durP2;ratioP2
26946;SDS011;14501;52.282;10.560;2024-01-30T00:01:58;8.10;;;4.35;;
26946;SDS011;14501;52.282;10.560;2024-01-30T00:04:24;7.10;;;4.18;;
26946;SDS011;14501;52.282;10.560;2024-01-30T00:06:50;7.47;;;4.15;;
26946;SDS011;14501;52.282;10.560;2024-01-30T00:09:17;6.35;;;3.95;;
26946;SDS011;14501;52.282;10.560;2024-01-30T00:11:43;9.32;;;4.82;;
26946;SDS011;14501;52.282;10.560;2024-01-30T00:14:09;6.30;;;4.32;;
26946;SDS011;14501;52.282;10.560;2024-01-30T00:16:34;9.13;;;4.78;;
26946;SDS011;14501;52.282;10.560;2024-01-30T00:19:00;5.28;;;3.80;;
26946;SDS011;14501;52.282;10.560;2024-01-30T00:21:30;6.68;;;4.30;;
26946;SDS011;14501;52.282;10.560;2024-01-30T00:23:56;7.60;;;3.80;;
26946;SDS011;14501;52.282;10.560;2024-01-30T00:26:22;6.45;;;4.10;;
26946;SDS011;14501;52.282;10.560;2024-01-30T00:28:48;7.80;;;4.05;;
26946;SDS011;14501;52.282;10.560;2024-01-30T00:31:13;8.07;;;4.18;;
26946;SDS011;14501;52.282;10.560;2024-01-30T00:33:39;7.85;;;4.20;;
26946;SDS011;14501;52.282;10.560;2024-01-30T00:36:05;6.45;;;3.72;;
26946;SDS011;14501;52.282;10.560;2024-01-30T00:38:32;9.45;;;4.90;;
26946;SDS011;14501;52.282;10.560;2024-01-30T00:40:59;9.35;;;4.93;;
26946;SDS011;14501;52.282;10.560;2024-01-30T00:43:25;8.10;;;4.18;;
26946;SDS011;14501;52.282;10.560;2024-01-30T00:45:51;7.32;;;4.72;;
26946;SDS011;14501;52.282;10.560;2024-01-30T00:48:17;10.85;;;5.15;;
26946;SDS011;14501;52.282;10.560;2024-01-30T00:50:43;6.47;;;4.03;;
26946;SDS011;14501;52.282;10.560;2024-01-30T00:53:09;11.88;;;6.25;;
26946;SDS011;14501;52.282;10.560;2024-01-30T00:55:35;8.45;;;4.85;;
26946;SDS011;14501;52.282;10.560;2024-01-30T00:58:01;6.75;;;3.97;;
26946;SDS011;14501;52.282;10.560;2024-01-30T01:00:27;10.75;;;4.55;;
26946;SDS011;14501;52.282;10.560;2024-01-30T01:02:54;6.00;;;3.72;;
26946;SDS011;14501;52.282;10.560;2024-01-30T01:05:20;7.60;;;3.97;;
26946;SDS011;14501;52.282;10.560;2024-01-30T01:07:46;6.63;;;3.70;;
26946;SDS011;14501;52.282;10.560;2024-01-30T01:10:15;10.25;;;4.40;;
26946;SDS011;14501;52.282;10.560;2024-01-30T01:12:44;8.43;;;4.50;;
26946;SDS011;14501;52.282;10.560;2024-01-30T01:15:10;7.47;;;4.28;;
26946;SDS011;14501;52.282;10.560;2024-01-30T01:17:36;7.68;;;3.80;;
26946;SDS011;14501;52.282;10.560;2024-01-30T01:20:02;7.05;;;4.32;;
26946;SDS011;14501;52.282;10.560;2024-01-30T01:22:30;7.68;;;4.20;;
26946;SDS011;14501;52.282;10.560;2024-01-30T01:24:56;8.43;;;4.07;;
26946;SDS011;14501;52.282;10.560;2024-01-30T01:27:22;10.25;;;4.70;;
26946;SDS011;14501;52.282;10.560;2024-01-30T01:29:48;6.68;;;4.30;;
26946;SDS011;14501;52.282;10.560;2024-01-30T01:32:13;10.23;;;4.18;;
26946;SDS011;14501;52.282;10.560;2024-01-30T01:34:40;10.57;;;4.70;;
26946;SDS011;14501;52.282;10.560;2024-01-30T01:37:05;8.25;;;4.50;;
26946;SDS011;14501;52.282;10.560;2024-01-30T01:39:32;10.95;;;4.78;;
26946;SDS011;14501;52.282;10.560;2024-01-30T01:41:57;10.95;;;5.20;;
26946;SDS011;14501;52.282;10.560;2024-01-30T01:44:23;9.70;;;4.80;;
26946;SDS011;14501;52.282;10.560;2024-01-30T01:46:49;6.57;;;4.28;;
26946;SDS011;14501;52.282;10.560;2024-01-30T01:49:17;7.55;;;4.20;;
26946;SDS011;14501;52.282;10.560;2024-01-30T01:51:44;8.52;;;4.60;;
26946;SDS011;14501;52.282;10.560;2024-01-30T01:54:12;6.88;;;4.00;;
26946;SDS011;14501;52.282;10.560;2024-01-30T01:56:39;6.15;;;4.07;;
26946;SDS011;14501;52.282;10.560;2024-01-30T01:59:05;8.48;;;3.88;;
26946;SDS011;14501;52.282;10.560;2024-01-30T02:01:33;6.97;;;4.32;;
26946;SDS011;14501;52.282;10.560;2024-01-30T02:04:01;7.97;;;4.15;;
26946;SDS011;14501;52.282;10.560;2024-01-30T02:06:27;8.00;;;4.63;;
26946;SDS011;14501;52.282;10.560;2024-01-30T02:08:53;6.45;;;3.90;;
26946;SDS011;14501;52.282;10.560;2024-01-30T02:11:19;6.65;;;4.50;;
26946;SDS011;14501;52.282;10.560;2024-01-30T02:13:45;8.95;;;3.97;;
26946;SDS011;14501;52.282;10.560;2024-01-30T02:16:11;4.80;;;3.42;;
26946;SDS011;14501;52.282;10.560;2024-01-30T02:18:37;7.32;;;4.43;;
26946;SDS011;14501;52.282;10.560;2024-01-30T02:21:07;9.40;;;4.47;;
26946;SDS011;14501;52.282;10.560;2024-01-30T02:23:33;8.63;;;4.93;;
26946;SDS011;14501;52.282;10.560;2024-01-30T02:25:59;7.97;;;4.13;;
26946;SDS011;14501;52.282;10.560;2024-01-30T02:28:25;6.43;;;3.60;;
26946;SDS011;14501;52.282;10.560;2024-01-30T02:30:52;8.57;;;4.35;;
26946;SDS011;14501;52.282;10.560;2024-01-30T02:33:18;10.15;;;4.07;;
26946;SDS011;14501;52.282;10.560;2024-01-30T02:35:44;7.60;;;3.90;;
26946;SDS011;14501;52.282;10.560;2024-01-30T02:38:09;6.22;;;3.85;;
26946;SDS011;14501;52.282;10.560;2024-01-30T02:40:35;7.03;;;4.50;;
26946;SDS011;14501;52.282;10.560;2024-01-30T02:43:01;7.18;;;3.97;;
26946;SDS011;14501;52.282;10.560;2024-01-30T02:45:28;5.50;;;3.70;;
26946;SDS011;14501;52.282;10.560;2024-01-30T02:47:54;7.15;;;4.45;;
26946;SDS011;14501;52.282;10.560;2024-01-30T02:50:19;8.35;;;4.20;;
26946;SDS011;14501;52.282;10.560;2024-01-30T02:52:45;8.77;;;4.20;;
26946;SDS011;14501;52.282;10.560;2024-01-30T02:55:11;10.10;;;3.80;;
26946;SDS011;14501;52.282;10.560;2024-01-30T02:57:37;10.32;;;4.07;;
26946;SDS011;14501;52.282;10.560;2024-01-30T03:00:04;11.90;;;4.90;;
26946;SDS011;14501;52.282;10.560;2024-01-30T03:02:31;7.05;;;3.90;;
26946;SDS011;14501;52.282;10.560;2024-01-30T03:04:57;7.72;;;3.90;;
26946;SDS011;14501;52.282;10.560;2024-01-30T03:07:23;7.47;;;4.22;;
26946;SDS011;14501;52.282;10.560;2024-01-30T03:09:49;9.15;;;4.20;;
26946;SDS011;14501;52.282;10.560;2024-01-30T03:12:14;6.40;;;3.97;;
26946;SDS011;14501;52.282;10.560;2024-01-30T03:14:40;6.75;;;4.13;;
26946;SDS011;14501;52.282;10.560;2024-01-30T03:17:06;8.10;;;3.92;;
26946;SDS011;14501;52.282;10.560;2024-01-30T03:19:32;5.60;;;3.58;;
26946;SDS011;14501;52.282;10.560;2024-01-30T03:21:59;7.93;;;3.90;;
26946;SDS011;14501;52.282;10.560;2024-01-30T03:24:25;6.32;;;3.80;;
26946;SDS011;14501;52.282;10.560;2024-01-30T03:26:51;6.88;;;3.85;;
26946;SDS011;14501;52.282;10.560;2024-01-30T03:29:16;4.90;;;3.92;;
26946;SDS011;14501;52.282;10.560;2024-01-30T03:31:42;8.32;;;4.78;;
26946;SDS011;14501;52.282;10.560;2024-01-30T03:34:08;6.60;;;3.65;;
26946;SDS011;14501;52.282;10.560;2024-01-30T03:36:34;8.25;;;5.13;;
26946;SDS011;14501;52.282;10.560;2024-01-30T03:39:00;10.55;;;4.22;;
26946;SDS011;14501;52.282;10.560;2024-01-30T03:44:49;7.85;;;4.05;;
26946;SDS011;14501;52.282;10.560;2024-01-30T03:47:18;5.28;;;3.55;;
26946;SDS011;14501;52.282;10.560;2024-01-30T03:49:44;9.38;;;4.25;;
26946;SDS011;14501;52.282;10.560;2024-01-30T03:52:10;8.98;;;4.32;;
26946;SDS011;14501;52.282;10.560;2024-01-30T03:54:36;10.73;;;4.80;;
26946;SDS011;14501;52.282;10.560;2024-01-30T03:57:02;8.48;;;5.03;;
26946;SDS011;14501;52.282;10.560;2024-01-30T03:59:28;9.80;;;4.50;;
26946;SDS011;14501;52.282;10.560;2024-01-30T04:01:54;6.57;;;4.43;;
26946;SDS011;14501;52.282;10.560;2024-01-30T04:04:20;10.80;;;4.80;;
26946;SDS011;14501;52.282;10.560;2024-01-30T04:06:46;8.57;;;4.18;;
26946;SDS011;14501;52.282;10.560;2024-01-30T04:09:12;9.98;;;4.82;;
26946;SDS011;14501;52.282;10.560;2024-01-30T04:11:39;9.63;;;4.70;;
26946;SDS011;14501;52.282;10.560;2024-01-30T04:14:05;9.77;;;4.88;;
26946;SDS011;14501;52.282;10.560;2024-01-30T04:16:31;7.80;;;4.25;;
26946;SDS011;14501;52.282;10.560;2024-01-30T04:18:57;7.30;;;4.18;;
26946;SDS011;14501;52.282;10.560;2024-01-30T04:21:23;7.53;;;4.07;;
26946;SDS011;14501;52.282;10.560;2024-01-30T04:23:50;8.70;;;3.90;;
26946;SDS011;14501;52.282;10.560;2024-01-30T04:26:16;7.53;;;3.92;;
26946;SDS011;14501;52.282;10.560;2024-01-30T04:28:42;8.90;;;4.60;;
26946;SDS011;14501;52.282;10.560;2024-01-30T04:31:09;12.20;;;4.25;;
26946;SDS011;14501;52.282;10.560;2024-01-30T04:33:35;6.72;;;4.32;;
26946;SDS011;14501;52.282;10.560;2024-01-30T04:36:01;6.10;;;3.50;;
26946;SDS011;14501;52.282;10.560;2024-01-30T04:38:27;7.88;;;4.28;;
26946;SDS011;14501;52.282;10.560;2024-01-30T04:40:53;4.80;;;3.70;;
26946;SDS011;14501;52.282;10.560;2024-01-30T04:43:19;7.22;;;4.57;;
26946;SDS011;14501;52.282;10.560;2024-01-30T04:45:46;10.60;;;4.85;;
26946;SDS011;14501;52.282;10.560;2024-01-30T04:48:12;8.20;;;4.10;;
26946;SDS011;14501;52.282;10.560;2024-01-30T04:50:38;8.68;;;4.28;;
26946;SDS011;14501;52.282;10.560;2024-01-30T04:53:04;4.65;;;3.28;;
26946;SDS011;14501;52.282;10.560;2024-01-30T04:58:48;8.55;;;4.22;;
26946;SDS011;14501;52.282;10.560;2024-01-30T05:01:19;7.38;;;4.03;;
26946;SDS011;14501;52.282;10.560;2024-01-30T05:03:48;7.93;;;4.47;;
26946;SDS011;14501;52.282;10.560;2024-01-30T05:06:27;11.48;;;4.30;;
26946;SDS011;14501;52.282;10.560;2024-01-30T05:08:53;8.07;;;4.05;;
26946;SDS011;14501;52.282;10.560;2024-01-30T05:11:19;6.68;;;3.83;;
26946;SDS011;14501;52.282;10.560;2024-01-30T05:13:45;6.40;;;4.18;;
26946;SDS011;14501;52.282;10.560;2024-01-30T05:16:11;7.25;;;4.10;;
26946;SDS011;14501;52.282;10.560;2024-01-30T05:18:36;6.90;;;4.15;;
26946;SDS011;14501;52.282;10.560;2024-01-30T05:21:02;7.60;;;4.35;;
26946;SDS011;14501;52.282;10.560;2024-01-30T05:23:28;6.40;;;4.18;;
26946;SDS011;14501;52.282;10.560;2024-01-30T05:25:54;8.20;;;4.80;;
26946;SDS011;14501;52.282;10.560;2024-01-30T05:28:20;7.10;;;4.65;;
26946;SDS011;14501;52.282;10.560;2024-01-30T05:30:46;5.97;;;3.50;;
26946;SDS011;14501;52.282;10.560;2024-01-30T05:33:12;8.95;;;4.47;;
26946;SDS011;14501;52.282;10.560;2024-01-30T05:35:38;5.63;;;3.58;;
26946;SDS011;14501;52.282;10.560;2024-01-30T05:38:04;8.13;;;3.92;;
26946;SDS011;14501;52.282;10.560;2024-01-30T05:40:30;7.13;;;4.25;;
26946;SDS011;14501;52.282;10.560;2024-01-30T05:42:56;7.25;;;3.90;;
26946;SDS011;14501;52.282;10.560;2024-01-30T05:45:27;13.05;;;4.07;;
26946;SDS011;14501;52.282;10.560;2024-01-30T05:47:53;6.50;;;3.55;;
26946;SDS011;14501;52.282;10.560;2024-01-30T05:50:19;5.75;;;3.60;;
26946;SDS011;14501;52.282;10.560;2024-01-30T05:52:48;6.10;;;4.10;;
26946;SDS011;14501;52.282;10.560;2024-01-30T05:55:14;7.75;;;4.20;;
26946;SDS011;14501;52.282;10.560;2024-01-30T05:57:40;8.57;;;3.35;;
26946;SDS011;14501;52.282;10.560;2024-01-30T06:00:06;6.10;;;3.78;;
26946;SDS011;14501;52.282;10.560;2024-01-30T06:02:32;7.70;;;4.25;;
26946;SDS011;14501;52.282;10.560;2024-01-30T06:04:58;8.98;;;4.03;;
26946;SDS011;14501;52.282;10.560;2024-01-30T06:07:23;8.95;;;4.68;;
26946;SDS011;14501;52.282;10.560;2024-01-30T06:09:49;8.15;;;4.40;;
26946;SDS011;14501;52.282;10.560;2024-01-30T06:12:15;11.38;;;5.90;;
26946;SDS011;14501;52.282;10.560;2024-01-30T06:14:40;11.70;;;5.15;;
26946;SDS011;14501;52.282;10.560;2024-01-30T06:17:07;10.20;;;4.85;;
26946;SDS011;14501;52.282;10.560;2024-01-30T06:19:33;11.90;;;5.28;;
26946;SDS011;14501;52.282;10.560;2024-01-30T06:21:59;9.55;;;5.07;;
26946;SDS011;14501;52.282;10.560;2024-01-30T06:24:25;9.40;;;5.30;;
26946;SDS011;14501;52.282;10.560;2024-01-30T06:26:51;10.35;;;5.72;;
26946;SDS011;14501;52.282;10.560;2024-01-30T06:29:17;12.30;;;5.47;;
26946;SDS011;14501;52.282;10.560;2024-01-30T06:31:43;12.05;;;4.68;;
26946;SDS011;14501;52.282;10.560;2024-01-30T06:34:09;6.30;;;4.30;;
26946;SDS011;14501;52.282;10.560;2024-01-30T06:36:36;7.45;;;4.32;;
26946;SDS011;14501;52.282;10.560;2024-01-30T06:39:02;7.30;;;4.50;;
26946;SDS011;14501;52.282;10.560;2024-01-30T06:41:28;13.77;;;4.88;;
26946;SDS011;14501;52.282;10.560;2024-01-30T06:43:54;8.57;;;4.60;;
26946;SDS011;14501;52.282;10.560;2024-01-30T06:46:20;7.03;;;4.32;;
26946;SDS011;14501;52.282;10.560;2024-01-30T06:48:46;13.15;;;4.80;;
26946;SDS011;14501;52.282;10.560;2024-01-30T06:51:11;9.00;;;4.75;;
26946;SDS011;14501;52.282;10.560;2024-01-30T06:53:37;11.30;;;4.95;;
26946;SDS011;14501;52.282;10.560;2024-01-30T06:56:03;10.40;;;4.63;;
26946;SDS011;14501;52.282;10.560;2024-01-30T06:58:29;9.40;;;4.80;;
26946;SDS011;14501;52.282;10.560;2024-01-30T07:00:55;10.93;;;4.93;;
26946;SDS011;14501;52.282;10.560;2024-01-30T07:03:21;8.52;;;4.60;;
26946;SDS011;14501;52.282;10.560;2024-01-30T07:05:47;12.27;;;4.88;;
26946;SDS011;14501;52.282;10.560;2024-01-30T07:08:12;8.30;;;4.35;;
26946;SDS011;14501;52.282;10.560;2024-01-30T07:10:38;9.15;;;4.90;;
26946;SDS011;14501;52.282;10.560;2024-01-30T07:13:04;11.20;;;5.15;;
26946;SDS011;14501;52.282;10.560;2024-01-30T07:15:30;10.88;;;5.40;;
26946;SDS011;14501;52.282;10.560;2024-01-30T07:17:56;9.73;;;4.97;;
26946;SDS011;14501;52.282;10.560;2024-01-30T07:20:22;11.35;;;5.38;;
26946;SDS011;14501;52.282;10.560;2024-01-30T07:22:47;8.10;;;4.63;;
26946;SDS011;14501;52.282;10.560;2024-01-30T07:25:13;11.50;;;5.15;;
26946;SDS011;14501;52.282;10.560;2024-01-30T07:27:39;9.98;;;4.97;;
26946;SDS011;14501;52.282;10.560;2024-01-30T07:30:05;9.27;;;5.53;;
26946;SDS011;14501;52.282;10.560;2024-01-30T07:32:31;8.98;;;4.82;;
26946;SDS011;14501;52.282;10.560;2024-01-30T07:34:56;6.35;;;4.10;;
26946;SDS011;14501;52.282;10.560;2024-01-30T07:37:22;8.07;;;4.63;;
26946;SDS011;14501;52.282;10.560;2024-01-30T07:39:48;8.57;;;4.75;;
26946;SDS011;14501;52.282;10.560;2024-01-30T07:42:13;7.70;;;5.07;;
26946;SDS011;14501;52.282;10.560;2024-01-30T07:44:39;9.50;;;4.65;;
26946;SDS011;14501;52.282;10.560;2024-01-30T07:47:05;10.52;;;4.90;;
26946;SDS011;14501;52.282;10.560;2024-01-30T07:49:30;11.52;;;5.75;;
26946;SDS011;14501;52.282;10.560;2024-01-30T07:51:59;10.98;;;5.65;;
26946;SDS011;14501;52.282;10.560;2024-01-30T07:54:25;9.38;;;5.97;;
26946;SDS011;14501;52.282;10.560;2024-01-30T07:56:51;12.07;;;6.28;;
26946;SDS011;14501;52.282;10.560;2024-01-30T07:59:16;12.75;;;5.63;;
26946;SDS011;14501;52.282;10.560;2024-01-30T08:02:02;14.30;;;6.07;;
26946;SDS011;14501;52.282;10.560;2024-01-30T08:04:27;13.25;;;6.68;;
26946;SDS011;14501;52.282;10.560;2024-01-30T08:06:53;8.52;;;5.40;;
26946;SDS011;14501;52.282;10.560;2024-01-30T08:09:18;11.90;;;5.85;;
26946;SDS011;14501;52.282;10.560;2024-01-30T08:11:44;13.77;;;7.15;;
26946;SDS011;14501;52.282;10.560;2024-01-30T08:14:09;15.90;;;6.82;;
26946;SDS011;14501;52.282;10.560;2024-01-30T08:16:35;14.90;;;7.60;;
26946;SDS011;14501;52.282;10.560;2024-01-30T08:19:01;12.10;;;6.72;;
26946;SDS011;14501;52.282;10.560;2024-01-30T08:21:28;13.57;;;6.35;;
26946;SDS011;14501;52.282;10.560;2024-01-30T08:23:53;10.05;;;5.45;;
26946;SDS011;14501;52.282;10.560;2024-01-30T08:26:19;10.73;;;5.15;;
26946;SDS011;14501;52.282;10.560;2024-01-30T08:28:44;9.43;;;5.20;;
26946;SDS011;14501;52.282;10.560;2024-01-30T08:31:10;10.93;;;5.53;;
26946;SDS011;14501;52.282;10.560;2024-01-30T08:33:37;10.35;;;5.35;;
26946;SDS011;14501;52.282;10.560;2024-01-30T08:36:02;9.38;;;4.75;;
26946;SDS011;14501;52.282;10.560;2024-01-30T08:38:28;11.98;;;6.35;;
26946;SDS011;14501;52.282;10.560;2024-01-30T08:40:54;12.00;;;5.95;;
26946;SDS011;14501;52.282;10.560;2024-01-30T08:43:20;10.82;;;5.97;;
26946;SDS011;14501;52.282;10.560;2024-01-30T08:45:45;8.73;;;5.13;;
26946;SDS011;14501;52.282;10.560;2024-01-30T08:48:11;8.15;;;4.93;;
26946;SDS011;14501;52.282;10.560;2024-01-30T08:50:36;12.32;;;5.57;;
26946;SDS011;14501;52.282;10.560;2024-01-30T08:53:02;10.07;;;5.45;;
26946;SDS011;14501;52.282;10.560;2024-01-30T08:55:29;11.63;;;5.95;;
26946;SDS011;14501;52.282;10.560;2024-01-30T08:57:54;9.23;;;5.65;;
26946;SDS011;14501;52.282;10.560;2024-01-30T09:00:20;11.13;;;5.63;;
26946;SDS011;14501;52.282;10.560;2024-01-30T09:02:45;10.77;;;4.57;;
26946;SDS011;14501;52.282;10.560;2024-01-30T09:05:11;12.40;;;5.70;;
26946;SDS011;14501;52.282;10.560;2024-01-30T09:07:37;9.13;;;5.45;;
26946;SDS011;14501;52.282;10.560;2024-01-30T09:10:02;8.70;;;5.35;;
26946;SDS011;14501;52.282;10.560;2024-01-30T09:12:28;14.77;;;5.40;;
26946;SDS011;14501;52.282;10.560;2024-01-30T09:14:54;10.80;;;4.95;;
26946;SDS011;14501;52.282;10.560;2024-01-30T09:17:20;9.82;;;5.30;;
26946;SDS011;14501;52.282;10.560;2024-01-30T09:19:46;9.77;;;5.50;;
26946;SDS011;14501;52.282;10.560;2024-01-30T09:22:12;8.65;;;5.45;;
26946;SDS011;14501;52.282;10.560;2024-01-30T09:24:38;8.25;;;4.97;;
26946;SDS011;14501;52.282;10.560;2024-01-30T09:27:04;11.73;;;5.45;;
26946;SDS011;14501;52.282;10.560;2024-01-30T09:29:29;7.88;;;4.85;;
26946;SDS011;14501;52.282;10.560;2024-01-30T09:31:55;8.55;;;5.68;;
26946;SDS011;14501;52.282;10.560;2024-01-30T09:34:21;8.63;;;5.32;;
26946;SDS011;14501;52.282;10.560;2024-01-30T09:36:46;8.50;;;5.65;;
26946;SDS011;14501;52.282;10.560;2024-01-30T09:39:12;9.23;;;5.65;;
26946;SDS011;14501;52.282;10.560;2024-01-30T09:41:45;10.18;;;4.72;;
26946;SDS011;14501;52.282;10.560;2024-01-30T09:44:15;7.50;;;4.95;;
26946;SDS011;14501;52.282;10.560;2024-01-30T09:46:41;9.02;;;4.25;;
26946;SDS011;14501;52.282;10.560;2024-01-30T09:49:08;8.80;;;5.25;;
26946;SDS011;14501;52.282;10.560;2024-01-30T09:51:34;14.38;;;5.45;;
26946;SDS011;14501;52.282;10.560;2024-01-30T09:54:01;21.67;;;6.75;;
26946;SDS011;14501;52.282;10.560;2024-01-30T09:56:28;18.55;;;6.47;;
26946;SDS011;14501;52.282;10.560;2024-01-30T09:58:54;15.55;;;5.88;;
26946;SDS011;14501;52.282;10.560;2024-01-30T10:01:19;12.82;;;5.43;;
26946;SDS011;14501;52.282;10.560;2024-01-30T10:03:45;12.02;;;5.38;;
26946;SDS011;14501;52.282;10.560;2024-01-30T10:06:11;9.60;;;5.20;;
26946;SDS011;14501;52.282;10.560;2024-01-30T10:08:37;9.60;;;4.75;;
26946;SDS011;14501;52.282;10.560;2024-01-30T10:11:03;9.75;;;4.82;;
26946;SDS011;14501;52.282;10.560;2024-01-30T10:13:29;9.27;;;4.95;;
26946;SDS011;14501;52.282;10.560;2024-01-30T10:15:55;9.73;;;4.72;;
26946;SDS011;14501;52.282;10.560;2024-01-30T10:18:24;9.15;;;4.38;;
26946;SDS011;14501;52.282;10.560;2024-01-30T10:20:50;8.10;;;4.53;;
26946;SDS011;14501;52.282;10.560;2024-01-30T10:23:16;6.70;;;4.07;;
26946;SDS011;14501;52.282;10.560;2024-01-30T10:25:43;6.82;;;4.40;;
26946;SDS011;14501;52.282;10.560;2024-01-30T10:28:09;5.47;;;3.63;;
26946;SDS011;14501;52.282;10.560;2024-01-30T10:30:34;6.15;;;4.40;;
26946;SDS011;14501;52.282;10.560;2024-01-30T10:33:00;7.88;;;3.75;;
26946;SDS011;14501;52.282;10.560;2024-01-30T10:35:25;8.15;;;4.38;;
26946;SDS011;14501;52.282;10.560;2024-01-30T10:37:51;7.47;;;4.70;;
26946;SDS011;14501;52.282;10.560;2024-01-30T10:40:17;10.52;;;5.43;;
26946;SDS011;14501;52.282;10.560;2024-01-30T10:42:46;9.82;;;5.03;;
26946;SDS011;14501;52.282;10.560;2024-01-30T10:45:14;8.75;;;4.82;;
26946;SDS011;14501;52.282;10.560;2024-01-30T10:47:44;8.60;;;4.90;;
26946;SDS011;14501;52.282;10.560;2024-01-30T10:50:14;9.65;;;4.60;;
26946;SDS011;14501;52.282;10.560;2024-01-30T10:52:40;10.02;;;5.63;;
26946;SDS011;14501;52.282;10.560;2024-01-30T10:55:09;9.10;;;4.93;;
26946;SDS011;14501;52.282;10.560;2024-01-30T10:57:35;7.03;;;4.75;;
26946;SDS011;14501;52.282;10.560;2024-01-30T11:00:02;8.32;;;4.50;;
26946;SDS011;14501;52.282;10.560;2024-01-30T11:02:35;8.98;;;4.63;;
26946;SDS011;14501;52.282;10.560;2024-01-30T11:05:04;9.60;;;4.68;;
26946;SDS011;14501;52.282;10.560;2024-01-30T11:07:30;7.50;;;4.10;;
26946;SDS011;14501;52.282;10.560;2024-01-30T11:12:29;5.95;;;3.78;;
26946;SDS011;14501;52.282;10.560;2024-01-30T11:17:44;7.20;;;4.28;;
26946;SDS011;14501;52.282;10.560;2024-01-30T11:22:51;6.25;;;4.38;;
26946;SDS011;14501;52.282;10.560;2024-01-30T11:25:19;6.45;;;4.00;;
26946;SDS011;14501;52.282;10.560;2024-01-30T11:27:49;6.88;;;4.40;;
26946;SDS011;14501;52.282;10.560;2024-01-30T11:30:31;8.25;;;4.05;;
26946;SDS011;14501;52.282;10.560;2024-01-30T11:33:07;6.40;;;4.22;;
26946;SDS011;14501;52.282;10.560;2024-01-30T11:35:40;8.68;;;4.47;;
26946;SDS011;14501;52.282;10.560;2024-01-30T11:38:07;6.25;;;3.78;;
26946;SDS011;14501;52.282;10.560;2024-01-30T11:40:35;6.78;;;3.30;;
26946;SDS011;14501;52.282;10.560;2024-01-30T11:43:03;5.95;;;4.43;;
26946;SDS011;14501;52.282;10.560;2024-01-30T11:45:29;7.38;;;4.38;;
26946;SDS011;14501;52.282;10.560;2024-01-30T11:47:56;6.50;;;3.72;;
26946;SDS011;14501;52.282;10.560;2024-01-30T11:50:22;6.57;;;3.65;;
26946;SDS011;14501;52.282;10.560;2024-01-30T11:52:49;6.63;;;4.18;;
26946;SDS011;14501;52.282;10.560;2024-01-30T11:55:15;7.38;;;3.80;;
26946;SDS011;14501;52.282;10.560;2024-01-30T11:57:41;8.25;;;4.03;;
26946;SDS011;14501;52.282;10.560;2024-01-30T12:00:18;7.65;;;3.85;;
26946;SDS011;14501;52.282;10.560;2024-01-30T12:02:44;7.47;;;4.40;;
26946;SDS011;14501;52.282;10.560;2024-01-30T12:05:15;10.45;;;4.43;;
26946;SDS011;14501;52.282;10.560;2024-01-30T12:07:43;12.85;;;4.63;;
26946;SDS011;14501;52.282;10.560;2024-01-30T12:10:09;7.32;;;4.07;;
26946;SDS011;14501;52.282;10.560;2024-01-30T12:12:36;5.88;;;3.70;;
26946;SDS011;14501;52.282;10.560;2024-01-30T12:15:02;7.28;;;3.72;;
26946;SDS011;14501;52.282;10.560;2024-01-30T12:17:29;7.60;;;3.97;;
26946;SDS011;14501;52.282;10.560;2024-01-30T12:22:31;5.38;;;3.33;;
26946;SDS011;14501;52.282;10.560;2024-01-30T12:25:01;7.60;;;4.13;;
26946;SDS011;14501;52.282;10.560;2024-01-30T12:27:26;5.60;;;3.30;;
26946;SDS011;14501;52.282;10.560;2024-01-30T12:29:58;4.43;;;3.40;;
26946;SDS011;14501;52.282;10.560;2024-01-30T12:32:24;6.75;;;3.70;;
26946;SDS011;14501;52.282;10.560;2024-01-30T12:34:49;6.60;;;3.80;;
26946;SDS011;14501;52.282;10.560;2024-01-30T12:37:15;5.90;;;3.55;;
26946;SDS011;14501;52.282;10.560;2024-01-30T12:39:46;6.72;;;3.35;;
26946;SDS011;14501;52.282;10.560;2024-01-30T12:42:12;5.90;;;3.38;;
26946;SDS011;14501;52.282;10.560;2024-01-30T12:44:39;6.03;;;3.28;;
26946;SDS011;14501;52.282;10.560;2024-01-30T12:47:05;6.38;;;3.63;;
26946;SDS011;14501;52.282;10.560;2024-01-30T12:49:31;6.07;;;3.47;;
26946;SDS011;14501;52.282;10.560;2024-01-30T12:51:56;6.97;;;3.20;;
26946;SDS011;14501;52.282;10.560;2024-01-30T12:54:23;4.03;;;3.20;;
26946;SDS011;14501;52.282;10.560;2024-01-30T12:56:49;3.75;;;3.13;;
26946;SDS011;14501;52.282;10.560;2024-01-30T12:59:14;6.43;;;3.10;;
26946;SDS011;14501;52.282;10.560;2024-01-30T13:01:41;4.85;;;3.28;;
26946;SDS011;14501;52.282;10.560;2024-01-30T13:04:06;7.85;;;3.65;;
26946;SDS011;14501;52.282;10.560;2024-01-30T13:06:32;4.05;;;3.00;;
26946;SDS011;14501;52.282;10.560;2024-01-30T13:08:57;4.63;;;3.20;;
26946;SDS011;14501;52.282;10.560;2024-01-30T13:11:23;5.40;;;3.17;;
26946;SDS011;14501;52.282;10.560;2024-01-30T13:13:50;5.05;;;3.38;;
26946;SDS011;14501;52.282;10.560;2024-01-30T13:16:16;9.00;;;3.45;;
26946;SDS011;14501;52.282;10.560;2024-01-30T13:18:42;5.25;;;2.70;;
26946;SDS011;14501;52.282;10.560;2024-01-30T13:21:08;7.55;;;3.55;;
26946;SDS011;14501;52.282;10.560;2024-01-30T13:23:34;10.13;;;3.75;;
26946;SDS011;14501;52.282;10.560;2024-01-30T13:26:00;4.07;;;3.30;;
26946;SDS011;14501;52.282;10.560;2024-01-30T13:28:25;4.50;;;2.97;;
26946;SDS011;14501;52.282;10.560;2024-01-30T13:30:51;4.60;;;3.35;;
26946;SDS011;14501;52.282;10.560;2024-01-30T13:33:17;9.00;;;3.00;;
26946;SDS011;14501;52.282;10.560;2024-01-30T13:35:43;8.77;;;3.80;;
26946;SDS011;14501;52.282;10.560;2024-01-30T13:38:08;4.75;;;3.33;;
26946;SDS011;14501;52.282;10.560;2024-01-30T13:40:35;4.45;;;3.05;;
26946;SDS011;14501;52.282;10.560;2024-01-30T13:43:01;5.40;;;3.67;;
26946;SDS011;14501;52.282;10.560;2024-01-30T13:45:27;4.55;;;3.40;;
26946;SDS011;14501;52.282;10.560;2024-01-30T13:47:52;6.53;;;3.17;;
26946;SDS011;14501;52.282;10.560;2024-01-30T13:50:18;6.50;;;3.33;;
26946;SDS011;14501;52.282;10.560;2024-01-30T13:52:43;5.85;;;3.90;;
26946;SDS011;14501;52.282;10.560;2024-01-30T13:55:09;7.30;;;3.70;;
26946;SDS011;14501;52.282;10.560;2024-01-30T13:57:35;5.32;;;3.30;;
26946;SDS011;14501;52.282;10.560;2024-01-30T14:00:05;6.47;;;3.80;;
26946;SDS011;14501;52.282;10.560;2024-01-30T14:02:31;4.55;;;3.47;;
26946;SDS011;14501;52.282;10.560;2024-01-30T14:04:57;4.93;;;2.92;;
26946;SDS011;14501;52.282;10.560;2024-01-30T14:07:23;7.63;;;3.58;;
26946;SDS011;14501;52.282;10.560;2024-01-30T14:09:49;5.45;;;3.05;;
26946;SDS011;14501;52.282;10.560;2024-01-30T14:12:15;4.72;;;2.97;;
26946;SDS011;14501;52.282;10.560;2024-01-30T14:14:40;4.50;;;3.25;;
26946;SDS011;14501;52.282;10.560;2024-01-30T14:17:06;5.05;;;3.53;;
26946;SDS011;14501;52.282;10.560;2024-01-30T14:19:35;6.05;;;3.60;;
26946;SDS011;14501;52.282;10.560;2024-01-30T14:22:01;5.65;;;3.78;;
26946;SDS011;14501;52.282;10.560;2024-01-30T14:24:27;8.52;;;3.85;;
26946;SDS011;14501;52.282;10.560;2024-01-30T14:26:52;4.72;;;3.28;;
26946;SDS011;14501;52.282;10.560;2024-01-30T14:29:18;6.13;;;3.65;;
26946;SDS011;14501;52.282;10.560;2024-01-30T14:31:43;8.18;;;3.47;;
26946;SDS011;14501;52.282;10.560;2024-01-30T14:34:09;6.80;;;3.40;;
26946;SDS011;14501;52.282;10.560;2024-01-30T14:36:36;7.22;;;3.97;;
26946;SDS011;14501;52.282;10.560;2024-01-30T14:39:02;6.80;;;3.88;;
26946;SDS011;14501;52.282;10.560;2024-01-30T14:41:28;6.10;;;3.67;;
26946;SDS011;14501;52.282;10.560;2024-01-30T14:43:54;8.52;;;3.53;;